sensor_id;sensor_type;location;lat;lon;timestamp;pressure;altitude;pressure_sealevel;temperature;humidity
57290;BME280;43523;53.022;-1.178;2023-04-30T00:00:53;101366.59;;;9.74;100.00
57290;BME280;43523;53.022;-1.178;2023-04-30T00:01:55;101367.23;;;9.72;100.00
57290;BME280;43523;53.022;-1.178;2023-04-30T00:02:58;101368.92;;;10.40;100.00
57290;BME280;43523;53.022;-1.178;2023-04-30T00:04:00;101368.86;;;9.85;100.00
57290;BME280;43523;53.022;-1.178;2023-04-30T00:05:03;101366.86;;;8.89;100.00
57290;BME280;43523;53.022;-1.178;2023-04-30T00:06:06;101367.79;;;8.70;100.00
57290;BME280;43523;53.022;-1.178;2023-04-30T00:07:13;101365.70;;;9.34;100.00
57290;BME280;43523;53.022;-1.178;2023-04-30T00:08:16;101365.89;;;9.70;100.00
57290;BME280;43523;53.022;-1.178;2023-04-30T00:09:18;101368.31;;;9.66;100.00
57290;BME280;43523;53.022;-1.178;2023-04-30T00:10:20;101370.48;;;9.16;100.00
57290;BME280;43523;53.022;-1.178;2023-04-30T00:11:22;101369.88;;;8.97;100.00
57290;BME280;43523;53.022;-1.178;2023-04-30T00:12:25;101361.31;;;9.15;100.00
57290;BME280;43523;53.022;-1.178;2023-04-30T00:13:27;101362.80;;;10.03;100.00
57290;BME280;43523;53.022;-1.178;2023-04-30T00:14:29;101362.87;;;10.44;100.00
57290;BME280;43523;53.022;-1.178;2023-04-30T00:15:32;101364.68;;;10.32;100.00
57290;BME280;43523;53.022;-1.178;2023-04-30T00:16:35;101364.14;;;10.69;100.00
57290;BME280;43523;53.022;-1.178;2023-04-30T00:17:37;101365.22;;;10.77;100.00
57290;BME280;43523;53.022;-1.178;2023-04-30T00:18:39;101364.38;;;10.51;100.00
57290;BME280;43523;53.022;-1.178;2023-04-30T00:19:42;101362.37;;;9.88;100.00
57290;BME280;43523;53.022;-1.178;2023-04-30T00:20:47;101361.04;;;10.19;100.00
57290;BME280;43523;53.022;-1.178;2023-04-30T00:21:49;101362.45;;;10.49;100.00
57290;BME280;43523;53.022;-1.178;2023-04-30T00:22:52;101360.83;;;10.78;100.00
57290;BME280;43523;53.022;-1.178;2023-04-30T00:23:54;101361.61;;;10.71;100.00
57290;BME280;43523;53.022;-1.178;2023-04-30T00:24:57;101363.17;;;10.24;100.00
57290;BME280;43523;53.022;-1.178;2023-04-30T00:25:59;101360.08;;;9.66;100.00
57290;BME280;43523;53.022;-1.178;2023-04-30T00:27:01;101359.83;;;10.43;100.00
57290;BME280;43523;53.022;-1.178;2023-04-30T00:28:03;101361.25;;;10.61;100.00
57290;BME280;43523;53.022;-1.178;2023-04-30T00:29:06;101361.74;;;10.68;100.00
57290;BME280;43523;53.022;-1.178;2023-04-30T00:30:09;101362.59;;;10.61;100.00
57290;BME280;43523;53.022;-1.178;2023-04-30T00:31:11;101362.48;;;10.71;100.00
57290;BME280;43523;53.022;-1.178;2023-04-30T00:32:14;101362.42;;;10.85;100.00
57290;BME280;43523;53.022;-1.178;2023-04-30T00:33:17;101363.38;;;10.50;100.00
57290;BME280;43523;53.022;-1.178;2023-04-30T00:34:19;101361.44;;;10.81;100.00
57290;BME280;43523;53.022;-1.178;2023-04-30T00:35:21;101359.81;;;10.47;100.00
57290;BME280;43523;53.022;-1.178;2023-04-30T00:36:24;101357.53;;;10.90;100.00
57290;BME280;43523;53.022;-1.178;2023-04-30T00:37:25;101358.39;;;10.57;100.00
57290;BME280;43523;53.022;-1.178;2023-04-30T00:38:28;101357.07;;;10.97;100.00
57290;BME280;43523;53.022;-1.178;2023-04-30T00:39:29;101358.15;;;10.83;100.00
57290;BME280;43523;53.022;-1.178;2023-04-30T00:40:33;101357.93;;;11.08;100.00
57290;BME280;43523;53.022;-1.178;2023-04-30T00:41:36;101359.24;;;11.09;100.00
57290;BME280;43523;53.022;-1.178;2023-04-30T00:42:40;101355.81;;;10.68;100.00
57290;BME280;43523;53.022;-1.178;2023-04-30T00:43:42;101355.31;;;10.90;100.00
57290;BME280;43523;53.022;-1.178;2023-04-30T00:44:46;101358.07;;;10.87;100.00
57290;BME280;43523;53.022;-1.178;2023-04-30T00:45:48;101357.54;;;10.58;100.00
57290;BME280;43523;53.022;-1.178;2023-04-30T00:46:50;101359.38;;;10.55;100.00
57290;BME280;43523;53.022;-1.178;2023-04-30T00:47:52;101358.15;;;10.52;100.00
57290;BME280;43523;53.022;-1.178;2023-04-30T00:48:54;101356.62;;;10.52;100.00
57290;BME280;43523;53.022;-1.178;2023-04-30T00:49:57;101357.18;;;11.03;100.00
57290;BME280;43523;53.022;-1.178;2023-04-30T00:51:01;101356.81;;;10.95;100.00
57290;BME280;43523;53.022;-1.178;2023-04-30T00:52:04;101359.62;;;10.69;100.00
57290;BME280;43523;53.022;-1.178;2023-04-30T00:53:06;101358.18;;;10.72;100.00
57290;BME280;43523;53.022;-1.178;2023-04-30T00:54:09;101359.23;;;10.94;100.00
57290;BME280;43523;53.022;-1.178;2023-04-30T00:55:12;101359.48;;;10.93;100.00
57290;BME280;43523;53.022;-1.178;2023-04-30T00:56:14;101358.67;;;10.48;100.00
57290;BME280;43523;53.022;-1.178;2023-04-30T00:57:16;101358.64;;;10.16;100.00
57290;BME280;43523;53.022;-1.178;2023-04-30T00:58:19;101358.44;;;10.18;100.00
57290;BME280;43523;53.022;-1.178;2023-04-30T00:59:22;101358.10;;;10.58;100.00
57290;BME280;43523;53.022;-1.178;2023-04-30T01:00:24;101356.14;;;10.28;100.00
57290;BME280;43523;53.022;-1.178;2023-04-30T01:01:28;101355.35;;;10.59;100.00
57290;BME280;43523;53.022;-1.178;2023-04-30T01:02:31;101353.67;;;10.44;100.00
57290;BME280;43523;53.022;-1.178;2023-04-30T01:03:33;101353.92;;;10.13;100.00
57290;BME280;43523;53.022;-1.178;2023-04-30T01:04:35;101355.36;;;10.28;100.00
57290;BME280;43523;53.022;-1.178;2023-04-30T01:05:38;101356.65;;;10.42;100.00
57290;BME280;43523;53.022;-1.178;2023-04-30T01:06:40;101355.08;;;10.68;100.00
57290;BME280;43523;53.022;-1.178;2023-04-30T01:07:43;101356.09;;;10.16;100.00
57290;BME280;43523;53.022;-1.178;2023-04-30T01:08:47;101354.94;;;9.91;100.00
57290;BME280;43523;53.022;-1.178;2023-04-30T01:09:50;101353.09;;;9.63;100.00
57290;BME280;43523;53.022;-1.178;2023-04-30T01:11:06;101352.97;;;9.69;100.00
57290;BME280;43523;53.022;-1.178;2023-04-30T01:12:16;101353.48;;;10.02;100.00
57290;BME280;43523;53.022;-1.178;2023-04-30T01:13:28;101353.67;;;10.39;100.00
57290;BME280;43523;53.022;-1.178;2023-04-30T01:14:44;101352.67;;;9.11;100.00
57290;BME280;43523;53.022;-1.178;2023-04-30T01:15:58;101353.56;;;9.15;100.00
57290;BME280;43523;53.022;-1.178;2023-04-30T01:17:05;101353.62;;;9.35;100.00
57290;BME280;43523;53.022;-1.178;2023-04-30T01:18:14;101353.45;;;9.81;100.00
57290;BME280;43523;53.022;-1.178;2023-04-30T01:19:33;101355.36;;;9.37;100.00
57290;BME280;43523;53.022;-1.178;2023-04-30T01:20:42;101357.62;;;8.94;100.00
57290;BME280;43523;53.022;-1.178;2023-04-30T01:21:49;101355.19;;;9.01;100.00
57290;BME280;43523;53.022;-1.178;2023-04-30T01:22:56;101350.92;;;9.65;100.00
57290;BME280;43523;53.022;-1.178;2023-04-30T01:24:30;101353.26;;;10.04;100.00
57290;BME280;43523;53.022;-1.178;2023-04-30T01:25:50;101351.81;;;9.59;100.00
57290;BME280;43523;53.022;-1.178;2023-04-30T01:27:06;101350.42;;;9.35;100.00
57290;BME280;43523;53.022;-1.178;2023-04-30T01:28:14;101351.15;;;9.72;100.00
57290;BME280;43523;53.022;-1.178;2023-04-30T01:29:18;101349.34;;;9.35;100.00
57290;BME280;43523;53.022;-1.178;2023-04-30T01:30:21;101349.94;;;9.06;100.00
57290;BME280;43523;53.022;-1.178;2023-04-30T01:31:27;101348.82;;;10.03;100.00
57290;BME280;43523;53.022;-1.178;2023-04-30T01:32:29;101350.74;;;10.27;100.00
57290;BME280;43523;53.022;-1.178;2023-04-30T01:33:32;101350.31;;;10.17;100.00
57290;BME280;43523;53.022;-1.178;2023-04-30T01:34:34;101347.64;;;10.59;100.00
57290;BME280;43523;53.022;-1.178;2023-04-30T01:35:57;101346.05;;;10.41;100.00
57290;BME280;43523;53.022;-1.178;2023-04-30T01:37:14;101346.29;;;10.49;100.00
57290;BME280;43523;53.022;-1.178;2023-04-30T01:38:25;101342.18;;;10.61;100.00
57290;BME280;43523;53.022;-1.178;2023-04-30T01:39:40;101342.36;;;10.45;100.00
57290;BME280;43523;53.022;-1.178;2023-04-30T01:40:51;101341.71;;;10.30;100.00
57290;BME280;43523;53.022;-1.178;2023-04-30T01:42:03;101340.57;;;10.61;100.00
57290;BME280;43523;53.022;-1.178;2023-04-30T01:43:14;101339.55;;;10.25;100.00
57290;BME280;43523;53.022;-1.178;2023-04-30T01:44:30;101339.48;;;10.43;100.00
57290;BME280;43523;53.022;-1.178;2023-04-30T01:45:49;101338.71;;;10.54;100.00
57290;BME280;43523;53.022;-1.178;2023-04-30T01:47:03;101338.97;;;10.23;100.00
57290;BME280;43523;53.022;-1.178;2023-04-30T01:48:17;101337.09;;;10.15;100.00
57290;BME280;43523;53.022;-1.178;2023-04-30T01:49:29;101339.51;;;10.36;100.00
57290;BME280;43523;53.022;-1.178;2023-04-30T01:50:37;101337.21;;;10.55;100.00
57290;BME280;43523;53.022;-1.178;2023-04-30T01:51:44;101337.57;;;10.62;100.00
57290;BME280;43523;53.022;-1.178;2023-04-30T01:52:51;101337.42;;;10.19;100.00
57290;BME280;43523;53.022;-1.178;2023-04-30T01:53:56;101338.38;;;10.37;100.00
57290;BME280;43523;53.022;-1.178;2023-04-30T01:55:06;101338.15;;;9.96;100.00
57290;BME280;43523;53.022;-1.178;2023-04-30T01:56:11;101337.13;;;9.68;100.00
57290;BME280;43523;53.022;-1.178;2023-04-30T01:57:26;101339.35;;;10.64;100.00
57290;BME280;43523;53.022;-1.178;2023-04-30T01:58:29;101338.64;;;10.13;100.00
57290;BME280;43523;53.022;-1.178;2023-04-30T01:59:35;101337.60;;;10.45;100.00
57290;BME280;43523;53.022;-1.178;2023-04-30T02:00:39;101334.22;;;10.61;100.00
57290;BME280;43523;53.022;-1.178;2023-04-30T02:01:42;101335.55;;;10.78;100.00
57290;BME280;43523;53.022;-1.178;2023-04-30T02:02:44;101333.93;;;10.71;100.00
57290;BME280;43523;53.022;-1.178;2023-04-30T02:03:51;101334.02;;;10.30;100.00
57290;BME280;43523;53.022;-1.178;2023-04-30T02:04:54;101332.04;;;10.37;100.00
57290;BME280;43523;53.022;-1.178;2023-04-30T02:05:56;101329.79;;;10.20;100.00
57290;BME280;43523;53.022;-1.178;2023-04-30T02:06:58;101328.95;;;10.17;100.00
57290;BME280;43523;53.022;-1.178;2023-04-30T02:08:01;101326.33;;;10.38;100.00
57290;BME280;43523;53.022;-1.178;2023-04-30T02:09:04;101326.24;;;10.43;100.00
57290;BME280;43523;53.022;-1.178;2023-04-30T02:10:07;101328.93;;;10.54;100.00
57290;BME280;43523;53.022;-1.178;2023-04-30T02:11:10;101327.42;;;10.67;100.00
57290;BME280;43523;53.022;-1.178;2023-04-30T02:12:12;101327.23;;;10.51;100.00
57290;BME280;43523;53.022;-1.178;2023-04-30T02:13:14;101326.17;;;10.04;100.00
57290;BME280;43523;53.022;-1.178;2023-04-30T02:14:17;101326.72;;;9.92;100.00
57290;BME280;43523;53.022;-1.178;2023-04-30T02:15:19;101328.76;;;9.98;100.00
57290;BME280;43523;53.022;-1.178;2023-04-30T02:16:21;101326.26;;;10.33;100.00
57290;BME280;43523;53.022;-1.178;2023-04-30T02:17:23;101329.17;;;10.49;100.00
57290;BME280;43523;53.022;-1.178;2023-04-30T02:18:25;101327.06;;;10.27;100.00
57290;BME280;43523;53.022;-1.178;2023-04-30T02:19:27;101325.67;;;10.61;100.00
57290;BME280;43523;53.022;-1.178;2023-04-30T02:20:30;101323.56;;;10.15;100.00
57290;BME280;43523;53.022;-1.178;2023-04-30T02:21:32;101325.80;;;10.42;100.00
57290;BME280;43523;53.022;-1.178;2023-04-30T02:22:34;101325.71;;;10.49;100.00
57290;BME280;43523;53.022;-1.178;2023-04-30T02:23:37;101325.17;;;9.61;100.00
57290;BME280;43523;53.022;-1.178;2023-04-30T02:24:39;101324.26;;;9.66;100.00
57290;BME280;43523;53.022;-1.178;2023-04-30T02:25:41;101326.09;;;9.50;100.00
57290;BME280;43523;53.022;-1.178;2023-04-30T02:26:44;101326.94;;;9.77;100.00
57290;BME280;43523;53.022;-1.178;2023-04-30T02:27:47;101323.48;;;9.77;100.00
57290;BME280;43523;53.022;-1.178;2023-04-30T02:28:49;101324.12;;;9.70;100.00
57290;BME280;43523;53.022;-1.178;2023-04-30T02:29:52;101324.24;;;9.60;100.00
57290;BME280;43523;53.022;-1.178;2023-04-30T02:30:54;101323.30;;;10.07;100.00
57290;BME280;43523;53.022;-1.178;2023-04-30T02:31:57;101319.63;;;9.26;100.00
57290;BME280;43523;53.022;-1.178;2023-04-30T02:33:00;101324.88;;;9.70;100.00
57290;BME280;43523;53.022;-1.178;2023-04-30T02:34:03;101323.99;;;9.61;100.00
57290;BME280;43523;53.022;-1.178;2023-04-30T02:35:05;101319.83;;;9.69;100.00
57290;BME280;43523;53.022;-1.178;2023-04-30T02:36:07;101318.46;;;10.08;100.00
57290;BME280;43523;53.022;-1.178;2023-04-30T02:37:10;101319.52;;;9.47;100.00
57290;BME280;43523;53.022;-1.178;2023-04-30T02:38:13;101319.68;;;9.96;100.00
57290;BME280;43523;53.022;-1.178;2023-04-30T02:39:15;101318.72;;;9.93;100.00
57290;BME280;43523;53.022;-1.178;2023-04-30T02:40:17;101316.61;;;9.99;100.00
57290;BME280;43523;53.022;-1.178;2023-04-30T02:41:19;101315.91;;;10.41;100.00
57290;BME280;43523;53.022;-1.178;2023-04-30T02:42:22;101316.11;;;10.31;100.00
57290;BME280;43523;53.022;-1.178;2023-04-30T02:43:24;101318.07;;;10.18;100.00
57290;BME280;43523;53.022;-1.178;2023-04-30T02:44:27;101317.48;;;10.48;100.00
57290;BME280;43523;53.022;-1.178;2023-04-30T02:45:31;101316.74;;;10.53;100.00
57290;BME280;43523;53.022;-1.178;2023-04-30T02:46:33;101318.06;;;10.16;100.00
57290;BME280;43523;53.022;-1.178;2023-04-30T02:47:35;101319.32;;;10.29;100.00
57290;BME280;43523;53.022;-1.178;2023-04-30T02:48:37;101320.18;;;10.26;100.00
57290;BME280;43523;53.022;-1.178;2023-04-30T02:49:39;101321.42;;;10.64;100.00
57290;BME280;43523;53.022;-1.178;2023-04-30T02:50:41;101320.02;;;10.44;100.00
57290;BME280;43523;53.022;-1.178;2023-04-30T02:51:44;101321.01;;;10.42;100.00
57290;BME280;43523;53.022;-1.178;2023-04-30T02:52:47;101322.53;;;10.32;100.00
57290;BME280;43523;53.022;-1.178;2023-04-30T02:53:49;101321.42;;;10.38;100.00
57290;BME280;43523;53.022;-1.178;2023-04-30T02:54:51;101320.21;;;10.04;100.00
57290;BME280;43523;53.022;-1.178;2023-04-30T02:55:53;101322.67;;;9.89;100.00
57290;BME280;43523;53.022;-1.178;2023-04-30T02:56:55;101319.51;;;10.11;100.00
57290;BME280;43523;53.022;-1.178;2023-04-30T02:57:57;101319.96;;;10.16;100.00
57290;BME280;43523;53.022;-1.178;2023-04-30T02:59:00;101324.33;;;10.04;100.00
57290;BME280;43523;53.022;-1.178;2023-04-30T03:00:04;101322.31;;;10.23;100.00
57290;BME280;43523;53.022;-1.178;2023-04-30T03:01:07;101324.74;;;10.16;100.00
57290;BME280;43523;53.022;-1.178;2023-04-30T03:02:09;101323.56;;;10.40;100.00
57290;BME280;43523;53.022;-1.178;2023-04-30T03:03:12;101325.86;;;10.53;100.00
57290;BME280;43523;53.022;-1.178;2023-04-30T03:04:14;101324.02;;;10.38;100.00
57290;BME280;43523;53.022;-1.178;2023-04-30T03:05:16;101326.49;;;10.45;100.00
57290;BME280;43523;53.022;-1.178;2023-04-30T03:06:18;101327.01;;;10.37;100.00
57290;BME280;43523;53.022;-1.178;2023-04-30T03:07:20;101325.24;;;10.27;100.00
57290;BME280;43523;53.022;-1.178;2023-04-30T03:08:24;101325.58;;;9.93;100.00
57290;BME280;43523;53.022;-1.178;2023-04-30T03:09:26;101324.49;;;10.25;100.00
57290;BME280;43523;53.022;-1.178;2023-04-30T03:10:29;101330.19;;;9.94;100.00
57290;BME280;43523;53.022;-1.178;2023-04-30T03:11:31;101331.47;;;10.13;100.00
57290;BME280;43523;53.022;-1.178;2023-04-30T03:12:33;101329.82;;;10.30;100.00
57290;BME280;43523;53.022;-1.178;2023-04-30T03:13:35;101329.93;;;10.23;100.00
57290;BME280;43523;53.022;-1.178;2023-04-30T03:14:37;101331.04;;;9.99;100.00
57290;BME280;43523;53.022;-1.178;2023-04-30T03:15:39;101330.93;;;10.49;100.00
57290;BME280;43523;53.022;-1.178;2023-04-30T03:16:42;101332.09;;;9.89;100.00
57290;BME280;43523;53.022;-1.178;2023-04-30T03:17:46;101333.25;;;10.07;100.00
57290;BME280;43523;53.022;-1.178;2023-04-30T03:18:48;101332.10;;;9.86;100.00
57290;BME280;43523;53.022;-1.178;2023-04-30T03:19:51;101333.73;;;8.95;100.00
57290;BME280;43523;53.022;-1.178;2023-04-30T03:20:53;101336.64;;;8.59;100.00
57290;BME280;43523;53.022;-1.178;2023-04-30T03:21:56;101334.77;;;9.35;100.00
57290;BME280;43523;53.022;-1.178;2023-04-30T03:22:58;101333.67;;;9.20;100.00
57290;BME280;43523;53.022;-1.178;2023-04-30T03:24:01;101332.73;;;9.50;100.00
57290;BME280;43523;53.022;-1.178;2023-04-30T03:25:04;101331.84;;;9.56;100.00
57290;BME280;43523;53.022;-1.178;2023-04-30T03:26:07;101333.60;;;10.36;100.00
57290;BME280;43523;53.022;-1.178;2023-04-30T03:27:09;101332.42;;;9.64;100.00
57290;BME280;43523;53.022;-1.178;2023-04-30T03:28:12;101332.14;;;9.61;100.00
57290;BME280;43523;53.022;-1.178;2023-04-30T03:29:14;101332.02;;;9.69;100.00
57290;BME280;43523;53.022;-1.178;2023-04-30T03:30:16;101334.60;;;9.43;100.00
57290;BME280;43523;53.022;-1.178;2023-04-30T03:31:18;101333.40;;;9.70;100.00
57290;BME280;43523;53.022;-1.178;2023-04-30T03:32:19;101335.74;;;9.66;100.00
57290;BME280;43523;53.022;-1.178;2023-04-30T03:33:22;101333.88;;;9.72;100.00
57290;BME280;43523;53.022;-1.178;2023-04-30T03:34:24;101334.86;;;9.96;100.00
57290;BME280;43523;53.022;-1.178;2023-04-30T03:35:26;101334.69;;;9.67;100.00
57290;BME280;43523;53.022;-1.178;2023-04-30T03:36:29;101335.85;;;9.98;100.00
57290;BME280;43523;53.022;-1.178;2023-04-30T03:37:32;101336.62;;;9.72;100.00
57290;BME280;43523;53.022;-1.178;2023-04-30T03:38:34;101337.70;;;9.77;100.00
57290;BME280;43523;53.022;-1.178;2023-04-30T03:39:36;101337.27;;;9.77;100.00
57290;BME280;43523;53.022;-1.178;2023-04-30T03:40:38;101337.56;;;9.67;100.00
57290;BME280;43523;53.022;-1.178;2023-04-30T03:41:40;101338.20;;;9.86;100.00
57290;BME280;43523;53.022;-1.178;2023-04-30T03:42:42;101338.35;;;8.95;100.00
57290;BME280;43523;53.022;-1.178;2023-04-30T03:43:44;101338.58;;;9.57;100.00
57290;BME280;43523;53.022;-1.178;2023-04-30T03:44:47;101339.96;;;8.96;100.00
57290;BME280;43523;53.022;-1.178;2023-04-30T03:45:49;101340.88;;;8.55;100.00
57290;BME280;43523;53.022;-1.178;2023-04-30T03:46:52;101341.43;;;7.95;100.00
57290;BME280;43523;53.022;-1.178;2023-04-30T03:47:54;101343.02;;;8.20;100.00
57290;BME280;43523;53.022;-1.178;2023-04-30T03:48:56;101344.09;;;7.67;100.00
57290;BME280;43523;53.022;-1.178;2023-04-30T03:49:59;101341.37;;;8.17;100.00
57290;BME280;43523;53.022;-1.178;2023-04-30T03:51:01;101340.68;;;8.38;100.00
57290;BME280;43523;53.022;-1.178;2023-04-30T03:52:03;101339.22;;;8.50;100.00
57290;BME280;43523;53.022;-1.178;2023-04-30T03:53:06;101338.89;;;8.10;100.00
57290;BME280;43523;53.022;-1.178;2023-04-30T03:54:08;101339.38;;;8.10;100.00
57290;BME280;43523;53.022;-1.178;2023-04-30T03:55:10;101339.45;;;8.94;100.00
57290;BME280;43523;53.022;-1.178;2023-04-30T03:56:12;101341.05;;;8.28;100.00
57290;BME280;43523;53.022;-1.178;2023-04-30T03:57:15;101343.42;;;7.90;100.00
57290;BME280;43523;53.022;-1.178;2023-04-30T03:58:17;101340.33;;;9.00;100.00
57290;BME280;43523;53.022;-1.178;2023-04-30T03:59:20;101339.80;;;9.00;100.00
57290;BME280;43523;53.022;-1.178;2023-04-30T04:00:22;101340.18;;;9.00;100.00
57290;BME280;43523;53.022;-1.178;2023-04-30T04:01:26;101339.82;;;8.71;100.00
57290;BME280;43523;53.022;-1.178;2023-04-30T04:02:30;101341.78;;;9.09;100.00
57290;BME280;43523;53.022;-1.178;2023-04-30T04:03:34;101341.98;;;9.27;100.00
57290;BME280;43523;53.022;-1.178;2023-04-30T04:04:35;101342.42;;;9.29;100.00
57290;BME280;43523;53.022;-1.178;2023-04-30T04:05:38;101343.63;;;9.18;100.00
57290;BME280;43523;53.022;-1.178;2023-04-30T04:06:40;101343.92;;;9.37;100.00
57290;BME280;43523;53.022;-1.178;2023-04-30T04:07:42;101342.95;;;9.45;100.00
57290;BME280;43523;53.022;-1.178;2023-04-30T04:08:46;101341.36;;;9.15;100.00
57290;BME280;43523;53.022;-1.178;2023-04-30T04:09:49;101340.72;;;8.93;100.00
57290;BME280;43523;53.022;-1.178;2023-04-30T04:10:51;101341.08;;;9.32;100.00
57290;BME280;43523;53.022;-1.178;2023-04-30T04:11:53;101341.59;;;9.09;100.00
57290;BME280;43523;53.022;-1.178;2023-04-30T04:12:56;101340.72;;;9.06;100.00
57290;BME280;43523;53.022;-1.178;2023-04-30T04:13:58;101340.72;;;9.28;100.00
57290;BME280;43523;53.022;-1.178;2023-04-30T04:15:00;101339.63;;;9.03;100.00
57290;BME280;43523;53.022;-1.178;2023-04-30T04:16:03;101341.17;;;9.00;100.00
57290;BME280;43523;53.022;-1.178;2023-04-30T04:17:05;101342.25;;;9.00;100.00
57290;BME280;43523;53.022;-1.178;2023-04-30T04:18:07;101342.63;;;9.10;100.00
57290;BME280;43523;53.022;-1.178;2023-04-30T04:19:10;101342.87;;;9.15;100.00
57290;BME280;43523;53.022;-1.178;2023-04-30T04:20:12;101338.68;;;8.86;100.00
57290;BME280;43523;53.022;-1.178;2023-04-30T04:21:15;101340.98;;;8.85;100.00
57290;BME280;43523;53.022;-1.178;2023-04-30T04:22:16;101340.88;;;8.91;100.00
57290;BME280;43523;53.022;-1.178;2023-04-30T04:23:19;101340.54;;;8.56;100.00
57290;BME280;43523;53.022;-1.178;2023-04-30T04:24:21;101341.91;;;8.57;100.00
57290;BME280;43523;53.022;-1.178;2023-04-30T04:25:25;101341.16;;;8.80;100.00
57290;BME280;43523;53.022;-1.178;2023-04-30T04:26:27;101343.94;;;9.11;100.00
57290;BME280;43523;53.022;-1.178;2023-04-30T04:27:30;101344.24;;;9.17;100.00
57290;BME280;43523;53.022;-1.178;2023-04-30T04:28:33;101341.59;;;8.56;100.00
57290;BME280;43523;53.022;-1.178;2023-04-30T04:29:36;101345.01;;;8.55;100.00
57290;BME280;43523;53.022;-1.178;2023-04-30T04:30:38;101348.22;;;8.63;100.00
57290;BME280;43523;53.022;-1.178;2023-04-30T04:31:40;101349.00;;;8.40;100.00
57290;BME280;43523;53.022;-1.178;2023-04-30T04:32:42;101348.13;;;8.60;100.00
57290;BME280;43523;53.022;-1.178;2023-04-30T04:33:46;101351.84;;;7.80;100.00
57290;BME280;43523;53.022;-1.178;2023-04-30T04:34:48;101351.49;;;8.35;100.00
57290;BME280;43523;53.022;-1.178;2023-04-30T04:35:50;101353.92;;;7.68;100.00
57290;BME280;43523;53.022;-1.178;2023-04-30T04:36:52;101353.81;;;8.28;100.00
57290;BME280;43523;53.022;-1.178;2023-04-30T04:37:55;101352.08;;;7.94;100.00
57290;BME280;43523;53.022;-1.178;2023-04-30T04:38:57;101352.24;;;8.24;100.00
57290;BME280;43523;53.022;-1.178;2023-04-30T04:40:00;101351.61;;;7.23;100.00
57290;BME280;43523;53.022;-1.178;2023-04-30T04:41:02;101351.77;;;7.99;100.00
57290;BME280;43523;53.022;-1.178;2023-04-30T04:42:05;101349.56;;;7.34;100.00
57290;BME280;43523;53.022;-1.178;2023-04-30T04:43:07;101352.77;;;8.19;100.00
57290;BME280;43523;53.022;-1.178;2023-04-30T04:44:08;101353.65;;;7.99;100.00
57290;BME280;43523;53.022;-1.178;2023-04-30T04:45:11;101349.86;;;7.23;100.00
57290;BME280;43523;53.022;-1.178;2023-04-30T04:46:13;101352.11;;;7.99;100.00
57290;BME280;43523;53.022;-1.178;2023-04-30T04:47:15;101351.56;;;7.66;100.00
57290;BME280;43523;53.022;-1.178;2023-04-30T04:48:17;101350.68;;;7.58;100.00
57290;BME280;43523;53.022;-1.178;2023-04-30T04:49:20;101350.58;;;7.46;100.00
57290;BME280;43523;53.022;-1.178;2023-04-30T04:50:22;101350.43;;;7.38;100.00
57290;BME280;43523;53.022;-1.178;2023-04-30T04:51:24;101349.87;;;7.21;100.00
57290;BME280;43523;53.022;-1.178;2023-04-30T04:52:27;101347.95;;;7.40;100.00
57290;BME280;43523;53.022;-1.178;2023-04-30T04:53:29;101344.34;;;7.99;100.00
57290;BME280;43523;53.022;-1.178;2023-04-30T04:54:32;101345.42;;;7.10;100.00
57290;BME280;43523;53.022;-1.178;2023-04-30T04:55:34;101349.03;;;6.73;100.00
57290;BME280;43523;53.022;-1.178;2023-04-30T04:56:36;101345.02;;;7.68;100.00
57290;BME280;43523;53.022;-1.178;2023-04-30T04:57:39;101346.69;;;7.66;100.00
57290;BME280;43523;53.022;-1.178;2023-04-30T04:58:43;101344.86;;;7.57;100.00
57290;BME280;43523;53.022;-1.178;2023-04-30T04:59:47;101347.83;;;7.06;100.00
57290;BME280;43523;53.022;-1.178;2023-04-30T05:00:50;101348.43;;;7.15;100.00
57290;BME280;43523;53.022;-1.178;2023-04-30T05:01:52;101343.53;;;7.68;100.00
57290;BME280;43523;53.022;-1.178;2023-04-30T05:02:55;101345.18;;;7.62;100.00
57290;BME280;43523;53.022;-1.178;2023-04-30T05:03:57;101348.87;;;7.54;100.00
57290;BME280;43523;53.022;-1.178;2023-04-30T05:04:59;101343.00;;;7.90;100.00
57290;BME280;43523;53.022;-1.178;2023-04-30T05:06:03;101346.73;;;7.05;100.00
57290;BME280;43523;53.022;-1.178;2023-04-30T05:07:06;101346.26;;;7.32;100.00
57290;BME280;43523;53.022;-1.178;2023-04-30T05:08:07;101341.83;;;7.31;100.00
57290;BME280;43523;53.022;-1.178;2023-04-30T05:09:10;101341.92;;;7.79;100.00
57290;BME280;43523;53.022;-1.178;2023-04-30T05:10:12;101342.30;;;7.76;100.00
57290;BME280;43523;53.022;-1.178;2023-04-30T05:11:14;101341.66;;;8.12;100.00
57290;BME280;43523;53.022;-1.178;2023-04-30T05:12:17;101342.10;;;7.75;100.00
57290;BME280;43523;53.022;-1.178;2023-04-30T05:13:19;101341.24;;;8.42;100.00
57290;BME280;43523;53.022;-1.178;2023-04-30T05:14:22;101339.90;;;8.21;100.00
57290;BME280;43523;53.022;-1.178;2023-04-30T05:15:24;101339.59;;;8.76;100.00
57290;BME280;43523;53.022;-1.178;2023-04-30T05:16:26;101337.72;;;8.79;100.00
57290;BME280;43523;53.022;-1.178;2023-04-30T05:17:29;101337.78;;;8.62;100.00
57290;BME280;43523;53.022;-1.178;2023-04-30T05:18:31;101337.39;;;8.71;100.00
57290;BME280;43523;53.022;-1.178;2023-04-30T05:19:33;101338.26;;;9.02;100.00
57290;BME280;43523;53.022;-1.178;2023-04-30T05:20:35;101338.85;;;9.20;100.00
57290;BME280;43523;53.022;-1.178;2023-04-30T05:21:37;101337.15;;;9.02;100.00
57290;BME280;43523;53.022;-1.178;2023-04-30T05:22:39;101338.17;;;9.19;100.00
57290;BME280;43523;53.022;-1.178;2023-04-30T05:23:44;101336.56;;;8.18;100.00
57290;BME280;43523;53.022;-1.178;2023-04-30T05:24:47;101337.90;;;8.80;100.00
57290;BME280;43523;53.022;-1.178;2023-04-30T05:25:50;101338.26;;;8.89;100.00
57290;BME280;43523;53.022;-1.178;2023-04-30T05:26:52;101339.28;;;8.99;100.00